Time;durP1;ratioP1;P1;durP2;ratioP2;P2;SDS_P1;SDS_P2;PMS_P1;PMS_P2;Temp;Humidity;BMP_temperature;BMP_pressure;BME280_temperature;BME280_humidity;BME280_pressure;Samples;Min_cycle;Max_cycle;Signal;HPM_P1;HPM_P2
2021/05/18 00:02:34;;;;;;;23.10;10.35;;;10.50;99.90;;;;;;10462652;28;20041;-61
2021/05/18 00:07:37;;;;;;;30.08;11.38;;;10.50;99.90;;;;;;10462066;28;20045;-61
2021/05/18 00:12:39;;;;;;;24.35;12.30;;;10.50;99.90;;;;;;10462569;28;20044;-60
2021/05/18 00:17:43;;;;;;;24.17;12.55;;;10.60;99.90;;;;;;10461303;28;20041;-60
2021/05/18 00:22:46;;;;;;;26.70;11.93;;;10.50;99.90;;;;;;10461000;28;20487;-59
2021/05/18 00:27:48;;;;;;;21.95;12.60;;;10.50;99.90;;;;;;10461477;28;20086;-60
2021/05/18 00:32:50;;;;;;;24.20;12.73;;;10.50;99.90;;;;;;10461387;28;20045;-59
2021/05/18 00:37:54;;;;;;;29.27;13.18;;;10.50;99.90;;;;;;10460997;28;20469;-60
2021/05/18 00:42:56;;;;;;;22.38;14.23;;;10.50;99.90;;;;;;10460703;28;20045;-61
2021/05/18 00:48:01;;;;;;;21.67;11.40;;;10.50;99.90;;;;;;10460419;28;20053;-59
2021/05/18 00:53:04;;;;;;;29.42;12.95;;;10.50;99.90;;;;;;10460039;28;20044;-59
2021/05/18 00:58:30;;;;;;;25.17;12.73;;;10.50;99.90;;;;;;10460414;28;20045;-60
2021/05/18 01:03:33;;;;;;;23.05;12.82;;;10.30;99.90;;;;;;10460264;28;20037;-62
2021/05/18 01:08:36;;;;;;;28.98;13.45;;;10.40;99.90;;;;;;10458713;28;20052;-60
2021/05/18 01:13:39;;;;;;;29.58;12.32;;;10.30;99.90;;;;;;10458531;28;20051;-59
2021/05/18 01:18:47;;;;;;;30.50;14.77;;;10.40;99.90;;;;;;10460229;28;20055;-59
2021/05/18 01:23:49;;;;;;;24.98;14.13;;;10.40;99.90;;;;;;10459446;28;20051;-59
2021/05/18 01:28:51;;;;;;;25.55;13.27;;;10.30;99.90;;;;;;10459009;28;20045;-58
2021/05/18 01:33:55;;;;;;;30.08;13.63;;;10.30;99.90;;;;;;10458496;28;20043;-60
2021/05/18 01:39:04;;;;;;;30.85;14.48;;;10.30;99.90;;;;;;10458635;28;20371;-58
2021/05/18 01:44:07;;;;;;;27.35;13.80;;;10.30;99.90;;;;;;10458279;28;20499;-60
2021/05/18 01:49:12;;;;;;;23.98;13.27;;;10.30;99.90;;;;;;10458143;28;20041;-60
2021/05/18 01:54:24;;;;;;;23.60;12.45;;;10.20;99.90;;;;;;10458430;28;20397;-59
2021/05/18 01:59:29;;;;;;;27.90;13.73;;;10.30;99.90;;;;;;10458184;28;20051;-58
2021/05/18 02:04:43;;;;;;;20.05;12.10;;;10.30;99.90;;;;;;10457649;28;20477;-61
2021/05/18 02:09:45;;;;;;;27.63;13.60;;;10.30;99.90;;;;;;10457811;28;20119;-58
2021/05/18 02:14:53;;;;;;;21.30;11.60;;;10.30;99.90;;;;;;10457194;28;20052;-59
2021/05/18 02:25:10;;;;;;;30.23;14.02;;;10.40;99.90;;;;;;10456932;28;20380;-60
2021/05/18 02:30:14;;;;;;;25.95;12.85;;;10.40;99.90;;;;;;10456906;28;20049;-58
2021/05/18 02:35:17;;;;;;;24.10;13.63;;;10.40;99.90;;;;;;10456632;28;20136;-58
2021/05/18 02:40:23;;;;;;;24.30;13.55;;;10.40;99.90;;;;;;10456610;28;20499;-58
2021/05/18 02:50:30;;;;;;;24.00;13.02;;;10.50;99.90;;;;;;10457258;28;20048;-60
2021/05/18 03:00:45;;;;;;;24.45;16.83;;;10.40;99.90;;;;;;10456698;28;20404;-59
2021/05/18 03:05:47;;;;;;;28.27;19.63;;;10.40;99.90;;;;;;10456173;28;20048;-60
2021/05/18 03:10:49;;;;;;;30.40;19.27;;;10.50;99.90;;;;;;10456184;28;20063;-59
2021/05/18 03:15:51;;;;;;;34.58;20.85;;;10.60;99.90;;;;;;10456217;28;20132;-59
2021/05/18 03:20:53;;;;;;;30.60;20.83;;;10.50;99.90;;;;;;10456153;28;20045;-62
2021/05/18 03:25:56;;;;;;;30.63;20.92;;;10.50;99.90;;;;;;10455219;28;20555;-60
2021/05/18 03:36:03;;;;;;;30.00;18.55;;;10.40;99.90;;;;;;10455241;28;20055;-58
2021/05/18 03:41:16;;;;;;;25.80;17.30;;;10.40;99.90;;;;;;10455937;28;20037;-59
2021/05/18 04:18:19;;;;;;;26.55;19.67;;;10.40;99.90;;;;;;10462164;28;20052;-59
2021/05/18 04:23:44;;;;;;;41.55;26.33;;;10.40;99.90;;;;;;10461885;28;20088;-60
2021/05/18 05:16:09;;;;;;;48.42;36.20;;;10.70;99.90;;;;;;10459728;28;20055;-61
2021/05/18 05:21:12;;;;;;;58.17;38.63;;;10.70;99.90;;;;;;10459357;28;20408;-61
2021/05/18 05:26:14;;;;;;;54.45;40.05;;;10.80;99.90;;;;;;10458700;28;20052;-59
2021/05/18 05:31:16;;;;;;;41.67;32.90;;;10.80;99.90;;;;;;10457892;28;20120;-59
2021/05/18 05:36:18;;;;;;;61.72;44.13;;;10.80;99.90;;;;;;10458467;28;20468;-60
2021/05/18 05:41:20;;;;;;;60.63;42.08;;;10.80;99.90;;;;;;10458485;28;20484;-59
2021/05/18 05:46:22;;;;;;;58.90;41.35;;;10.80;99.90;;;;;;10458421;28;20052;-60
2021/05/18 05:51:27;;;;;;;46.33;35.97;;;10.90;99.90;;;;;;10458842;28;20048;-60
2021/05/18 05:56:30;;;;;;;43.50;33.90;;;10.90;99.90;;;;;;10458137;28;20041;-60
2021/05/18 06:01:32;;;;;;;53.83;37.65;;;10.90;99.90;;;;;;10456754;28;20394;-59
2021/05/18 06:06:34;;;;;;;42.97;32.97;;;11.00;99.90;;;;;;10457675;28;20037;-60
2021/05/18 06:43:24;;;;;;;40.55;30.50;;;11.50;99.90;;;;;;10456768;28;20123;-59
2021/05/18 06:48:26;;;;;;;42.72;32.33;;;11.50;99.90;;;;;;10456852;28;20049;-60
2021/05/18 06:53:28;;;;;;;42.28;30.20;;;11.60;99.90;;;;;;10456365;28;20047;-61
2021/05/18 07:03:50;;;;;;;37.33;28.05;;;11.70;99.90;;;;;;10456075;28;20041;-60
2021/05/18 07:13:55;;;;;;;41.38;29.20;;;12.00;99.90;;;;;;10456044;28;20045;-59
2021/05/18 07:18:57;;;;;;;36.00;28.20;;;12.10;99.90;;;;;;10455717;28;20481;-60
2021/05/18 07:23:59;;;;;;;32.50;27.20;;;12.10;99.90;;;;;;10454163;28;20045;-61
2021/05/18 07:29:01;;;;;;;36.10;27.42;;;12.40;99.90;;;;;;10455870;28;20041;-61
2021/05/18 07:34:03;;;;;;;26.25;22.48;;;12.40;99.90;;;;;;10462660;28;20076;-63
2021/05/18 07:39:06;;;;;;;9.40;8.43;;;12.30;99.90;;;;;;10462440;28;20389;-60
2021/05/18 07:44:11;;;;;;;13.40;6.18;;;11.90;99.90;;;;;;10463442;28;20076;-61
2021/05/18 07:49:25;;;;;;;8.07;4.53;;;11.50;99.90;;;;;;10463115;28;20047;-60
2021/05/18 08:10:21;;;;;;;15.38;13.10;;;12.00;99.90;;;;;;10462641;28;20083;-59
2021/05/18 10:34:32;;;;;;;4.30;3.90;;;14.40;99.90;;;;;;10457234;28;20045;-60
2021/05/18 10:39:35;;;;;;;4.80;4.30;;;14.00;99.90;;;;;;10456937;28;20123;-61
2021/05/18 10:44:56;;;;;;;5.43;4.93;;;14.20;99.90;;;;;;10456439;28;20052;-62
2021/05/18 10:50:02;;;;;;;6.70;3.95;;;14.10;99.90;;;;;;10456479;28;20123;-60
2021/05/18 10:55:08;;;;;;;3.92;3.28;;;14.20;99.90;;;;;;10456903;28;20055;-61
2021/05/18 11:00:11;;;;;;;3.83;3.45;;;14.30;99.90;;;;;;10456555;28;20049;-61
2021/05/18 11:05:15;;;;;;;4.18;3.67;;;14.80;99.90;;;;;;10461354;28;20051;-61
2021/05/18 11:10:20;;;;;;;20.95;6.28;;;15.70;99.90;;;;;;10464406;28;20469;-60
2021/05/18 11:15:24;;;;;;;5.93;3.58;;;16.50;99.90;;;;;;10464398;28;20401;-62
2021/05/18 11:25:42;;;;;;;3.13;2.63;;;15.80;99.90;;;;;;10463887;28;20055;-62
2021/05/18 11:30:56;;;;;;;2.70;2.50;;;15.70;99.90;;;;;;10463808;28;20041;-62
2021/05/18 11:36:15;;;;;;;3.17;2.80;;;15.80;99.90;;;;;;10462567;28;20357;-62
2021/05/18 11:41:26;;;;;;;4.03;3.15;;;16.10;99.90;;;;;;10463457;28;20488;-61
2021/05/18 11:46:34;;;;;;;5.50;5.00;;;16.40;99.90;;;;;;10463560;28;20049;-62
2021/05/18 11:51:54;;;;;;;6.45;5.80;;;16.50;99.90;;;;;;10461958;28;20041;-62
2021/05/18 11:57:02;;;;;;;8.10;5.68;;;16.90;99.90;;;;;;10461804;28;20135;-60
2021/05/18 12:02:06;;;;;;;5.97;5.38;;;17.70;99.90;;;;;;10477938;28;20048;-61
2021/05/18 12:07:12;;;;;;;6.40;5.60;;;18.20;99.90;;;;;;10462228;28;20041;-62
2021/05/18 12:12:15;;;;;;;6.85;5.63;;;18.30;99.90;;;;;;10462237;28;20049;-61
2021/05/18 12:17:31;;;;;;;5.65;5.15;;;18.70;99.90;;;;;;10461102;28;20044;-61
2021/05/18 12:22:47;;;;;;;6.32;5.47;;;18.60;99.90;;;;;;10462070;28;20045;-62
2021/05/18 12:27:49;;;;;;;5.53;2.85;;;18.30;99.90;;;;;;10461732;28;20051;-61
2021/05/18 12:32:51;;;;;;;3.40;2.80;;;17.70;99.90;;;;;;10461484;28;20041;-61
2021/05/18 12:37:55;;;;;;;5.88;3.88;;;17.40;99.90;;;;;;10461292;28;20049;-62
2021/05/18 12:43:21;;;;;;;4.18;3.70;;;18.20;99.90;;;;;;10461243;28;20048;-62
2021/05/18 12:48:47;;;;;;;4.28;3.60;;;18.70;99.90;;;;;;10475609;28;20497;-61
2021/05/18 12:54:04;;;;;;;3.15;2.90;;;18.90;99.90;;;;;;10460607;28;20048;-61
2021/05/18 12:59:07;;;;;;;6.53;3.55;;;18.90;99.90;;;;;;10475971;28;20053;-60
2021/05/18 13:04:11;;;;;;;4.57;4.18;;;19.60;99.90;;;;;;10460028;28;20045;-61
2021/05/18 13:09:22;;;;;;;4.60;3.97;;;18.80;99.90;;;;;;10460361;28;20118;-60
2021/05/18 13:14:24;;;;;;;4.60;3.53;;;18.90;99.90;;;;;;10459930;28;20048;-63
2021/05/18 13:19:26;;;;;;;8.45;3.63;;;19.60;99.90;;;;;;10459205;28;20049;-62
2021/05/18 13:30:03;;;;;;;4.18;3.08;;;18.70;99.90;;;;;;10448049;28;20120;-61
2021/05/18 13:35:06;;;;;;;6.75;4.15;;;19.30;97.90;;;;;;10458787;28;20503;-60
2021/05/18 13:40:09;;;;;;;5.10;3.03;;;18.90;99.90;;;;;;10474171;28;20049;-62
2021/05/18 13:45:11;;;;;;;3.70;2.55;;;18.90;99.90;;;;;;10474009;28;20047;-60
2021/05/18 13:50:13;;;;;;;3.80;2.88;;;18.70;98.10;;;;;;10458533;28;20060;-61
2021/05/18 13:55:16;;;;;;;4.07;2.70;;;18.90;97.30;;;;;;10457384;28;20067;-60
2021/05/18 14:00:20;;;;;;;3.78;2.10;;;19.30;96.00;;;;;;10458235;28;20051;-62
2021/05/18 14:05:27;;;;;;;3.70;2.78;;;20.00;94.90;;;;;;10457743;28;20456;-62
2021/05/18 14:10:29;;;;;;;4.30;3.08;;;19.60;97.20;;;;;;10457625;28;20087;-62
2021/05/18 14:15:31;;;;;;;4.57;2.22;;;18.80;94.50;;;;;;10457492;28;20056;-63
2021/05/18 14:20:33;;;;;;;4.20;2.78;;;18.70;97.50;;;;;;10457079;28;20531;-62
2021/05/18 14:25:36;;;;;;;3.63;3.33;;;18.60;97.50;;;;;;10457592;28;20049;-61
2021/05/18 14:30:58;;;;;;;4.88;2.67;;;18.00;98.00;;;;;;10457115;28;20045;-61
2021/05/18 14:36:00;;;;;;;3.83;2.67;;;18.10;99.90;;;;;;10456805;28;20055;-61
2021/05/18 14:56:37;;;;;;;1.88;1.67;;;17.70;97.60;;;;;;10456439;28;20473;-62
2021/05/18 15:01:39;;;;;;;4.90;2.47;;;17.90;95.90;;;;;;10456429;28;20124;-63
2021/05/18 15:06:42;;;;;;;2.55;2.35;;;17.90;97.80;;;;;;10456244;28;20428;-62
2021/05/18 15:11:44;;;;;;;4.72;2.42;;;18.30;97.40;;;;;;10456219;28;20091;-60
2021/05/18 15:16:46;;;;;;;3.30;2.35;;;18.60;92.80;;;;;;10456186;28;20041;-60
2021/05/18 15:21:48;;;;;;;3.58;1.73;;;18.80;95.40;;;;;;10454804;28;20041;-62
2021/05/18 15:26:51;;;;;;;1.80;1.70;;;18.80;92.70;;;;;;10471018;28;20485;-61
2021/05/18 15:31:53;;;;;;;1.83;1.27;;;18.70;92.10;;;;;;10454600;28;20128;-59
2021/05/18 15:36:56;;;;;;;3.70;1.88;;;18.50;92.50;;;;;;10455513;28;20476;-61
2021/05/18 15:41:58;;;;;;;4.07;1.80;;;18.30;92.90;;;;;;10455686;28;20045;-61
2021/05/18 15:47:00;;;;;;;1.58;1.00;;;18.10;93.20;;;;;;10454123;28;20052;-61
2021/05/18 15:52:03;;;;;;;1.25;1.15;;;18.40;92.90;;;;;;10461638;28;20045;-60
2021/05/18 15:57:05;;;;;;;4.05;1.35;;;17.80;91.50;;;;;;10462884;28;20044;-60
2021/05/18 16:02:07;;;;;;;2.28;1.38;;;17.60;91.70;;;;;;10463004;28;20044;-60
2021/05/18 16:07:11;;;;;;;2.25;1.25;;;17.50;95.20;;;;;;10462511;28;20046;-61
2021/05/18 16:12:14;;;;;;;2.10;0.95;;;17.40;94.10;;;;;;10462301;28;20049;-60
2021/05/18 16:17:20;;;;;;;0.90;0.90;;;17.50;91.70;;;;;;10462260;28;20047;-61
2021/05/18 16:22:22;;;;;;;2.13;1.50;;;17.50;93.20;;;;;;10461997;28;20068;-62
2021/05/18 16:27:25;;;;;;;2.40;1.50;;;17.40;92.20;;;;;;10461181;28;20359;-61
2021/05/18 16:32:27;;;;;;;1.50;1.13;;;17.50;93.00;;;;;;10461444;28;20049;-61
2021/05/18 16:37:29;;;;;;;2.25;1.08;;;17.60;94.00;;;;;;10462121;28;20068;-62
2021/05/18 16:42:34;;;;;;;1.42;1.10;;;17.60;92.90;;;;;;10460632;28;20431;-61
2021/05/18 16:47:37;;;;;;;2.10;1.00;;;17.50;93.80;;;;;;10460855;28;20041;-60
2021/05/18 16:52:39;;;;;;;3.05;0.98;;;17.50;93.10;;;;;;10460723;28;20049;-61
2021/05/18 16:57:42;;;;;;;1.42;1.10;;;17.60;93.60;;;;;;10460407;28;20127;-61
2021/05/18 17:02:44;;;;;;;2.40;1.30;;;17.20;92.50;;;;;;10459625;28;20049;-60
2021/05/18 17:07:46;;;;;;;2.08;0.82;;;17.30;92.60;;;;;;10459222;28;20055;-61
2021/05/18 17:12:52;;;;;;;1.00;0.98;;;17.10;92.90;;;;;;10460089;28;20049;-61
2021/05/18 17:17:58;;;;;;;1.88;1.25;;;16.90;93.00;;;;;;10458844;28;20052;-60
2021/05/18 17:23:02;;;;;;;3.97;0.93;;;16.90;94.30;;;;;;10459617;28;20053;-60
2021/05/18 17:28:05;;;;;;;2.20;0.90;;;16.80;92.50;;;;;;10474033;28;20381;-60
2021/05/18 17:33:10;;;;;;;1.38;0.77;;;16.70;94.50;;;;;;10459213;28;20045;-63
2021/05/18 17:38:14;;;;;;;1.48;0.75;;;16.50;94.30;;;;;;10459299;28;20048;-60
2021/05/18 17:43:18;;;;;;;1.58;0.90;;;16.50;94.20;;;;;;10458556;28;20500;-61
2021/05/18 17:48:20;;;;;;;1.65;1.00;;;16.40;92.70;;;;;;10474030;28;20045;-60
2021/05/18 17:53:22;;;;;;;2.45;0.77;;;16.20;93.70;;;;;;10458306;28;20548;-61
2021/05/18 17:58:24;;;;;;;3.65;1.00;;;16.10;93.50;;;;;;10458297;28;20048;-61
2021/05/18 18:03:27;;;;;;;3.03;0.80;;;16.20;94.20;;;;;;10457754;28;20496;-62
2021/05/18 18:08:29;;;;;;;1.58;0.90;;;15.90;94.80;;;;;;10457879;28;20068;-60
2021/05/18 18:13:31;;;;;;;2.13;0.88;;;15.80;94.60;;;;;;10456861;28;20041;-63
2021/05/18 18:18:35;;;;;;;1.45;0.80;;;15.70;94.30;;;;;;10457519;28;20053;-62
2021/05/18 18:23:38;;;;;;;1.60;0.90;;;15.50;95.60;;;;;;10456880;28;20091;-61
2021/05/18 18:28:41;;;;;;;1.77;0.90;;;15.40;94.20;;;;;;10472778;28;20416;-61
2021/05/18 18:33:43;;;;;;;2.50;0.90;;;15.30;94.40;;;;;;10456932;28;20040;-61
2021/05/18 18:38:45;;;;;;;3.75;1.42;;;15.00;94.80;;;;;;10457487;28;20048;-62
2021/05/18 18:43:47;;;;;;;2.70;0.88;;;15.00;96.00;;;;;;10456620;28;20048;-60
2021/05/18 18:48:49;;;;;;;2.35;1.02;;;15.00;96.70;;;;;;10457052;28;20127;-61
2021/05/18 18:53:51;;;;;;;2.22;0.98;;;14.90;96.00;;;;;;10456664;28;20063;-60
2021/05/18 18:58:53;;;;;;;6.35;1.38;;;14.70;96.80;;;;;;10456786;28;20148;-61
2021/05/18 19:04:00;;;;;;;2.90;1.00;;;14.50;96.60;;;;;;10472055;28;20078;-59
2021/05/18 19:14:19;;;;;;;6.63;1.63;;;14.50;98.50;;;;;;10456075;28;20052;-62
2021/05/18 19:19:21;;;;;;;4.50;1.10;;;14.50;98.10;;;;;;10455007;28;20454;-61
2021/05/18 19:24:25;;;;;;;2.08;0.90;;;14.40;98.60;;;;;;10458487;28;20059;-61
2021/05/18 19:29:27;;;;;;;2.22;1.30;;;14.30;99.00;;;;;;10463899;28;20542;-60
2021/05/18 19:34:36;;;;;;;1.30;1.13;;;14.10;99.20;;;;;;10464248;28;20068;-61
2021/05/18 19:45:30;;;;;;;3.58;1.33;;;13.80;99.90;;;;;;10464122;28;20045;-60
2021/05/18 19:50:33;;;;;;;2.20;1.20;;;13.80;99.90;;;;;;10463244;28;20045;-61
2021/05/18 19:55:59;;;;;;;1.63;1.20;;;13.50;99.90;;;;;;10463030;28;20044;-60
2021/05/18 20:17:11;;;;;;;1.98;1.33;;;13.30;99.90;;;;;;10462278;28;20041;-60
2021/05/18 20:22:16;;;;;;;4.13;1.60;;;13.30;99.90;;;;;;10462006;28;20094;-60
2021/05/18 20:27:20;;;;;;;3.03;1.50;;;13.20;99.90;;;;;;10462114;28;20049;-60
2021/05/18 20:32:29;;;;;;;3.60;1.48;;;13.00;99.90;;;;;;10461568;28;20496;-60
2021/05/18 20:42:53;;;;;;;4.70;1.60;;;12.70;99.90;;;;;;10460328;28;20041;-61
2021/05/18 20:47:55;;;;;;;2.75;1.88;;;12.70;99.90;;;;;;10460828;28;20378;-59
2021/05/18 20:52:57;;;;;;;6.38;2.58;;;12.60;99.90;;;;;;10460994;28;20059;-59
2021/05/18 20:57:59;;;;;;;1.50;1.17;;;12.30;99.90;;;;;;10461275;28;20048;-60
2021/05/18 21:03:03;;;;;;;2.55;1.85;;;12.30;99.90;;;;;;10460500;28;20045;-60
2021/05/18 21:18:32;;;;;;;2.05;1.45;;;12.00;99.90;;;;;;10474843;28;20045;-59
2021/05/18 21:23:34;;;;;;;4.03;1.83;;;11.80;99.90;;;;;;10459111;28;20503;-59
2021/05/18 21:28:36;;;;;;;5.88;2.17;;;11.70;99.90;;;;;;10459440;28;20136;-58
2021/05/18 21:33:38;;;;;;;3.10;1.60;;;11.70;99.90;;;;;;10458862;28;20037;-60
2021/05/18 21:38:41;;;;;;;4.00;1.58;;;11.60;99.90;;;;;;10457981;28;20092;-59
2021/05/18 21:43:43;;;;;;;4.60;2.38;;;11.60;99.90;;;;;;10458811;28;20063;-60
2021/05/18 21:48:45;;;;;;;2.40;1.60;;;11.40;99.90;;;;;;10458429;28;20378;-59
2021/05/18 21:53:47;;;;;;;4.05;2.05;;;11.30;99.90;;;;;;10457105;28;20392;-59
2021/05/18 21:58:49;;;;;;;3.67;2.05;;;11.30;99.90;;;;;;10458188;28;20040;-59
2021/05/18 22:03:51;;;;;;;9.25;2.20;;;11.10;99.90;;;;;;10457819;28;20048;-60
2021/05/18 22:14:13;;;;;;;6.05;2.75;;;11.20;99.90;;;;;;10457600;28;20041;-58
2021/05/18 22:29:56;;;;;;;5.43;2.22;;;11.00;99.90;;;;;;10457413;28;20052;-59
2021/05/18 22:34:58;;;;;;;3.78;2.45;;;10.90;99.90;;;;;;10457075;28;20041;-61
2021/05/18 22:40:00;;;;;;;5.90;2.80;;;10.70;99.90;;;;;;10472205;28;20051;-61
2021/05/18 22:45:05;;;;;;;3.92;2.30;;;10.70;99.90;;;;;;10456669;28;20469;-60
2021/05/18 22:50:08;;;;;;;4.88;2.28;;;10.80;99.90;;;;;;10457022;28;20051;-59
2021/05/18 22:55:11;;;;;;;3.92;2.22;;;10.60;99.90;;;;;;10456143;28;20041;-60
2021/05/18 23:00:16;;;;;;;3.75;1.70;;;10.50;99.90;;;;;;10460277;28;20040;-60
2021/05/18 23:05:20;;;;;;;4.97;2.47;;;10.40;99.90;;;;;;10465299;28;20123;-59
2021/05/18 23:10:22;;;;;;;6.65;3.22;;;10.20;99.90;;;;;;10464889;28;20049;-60
2021/05/18 23:15:24;;;;;;;6.45;2.53;;;10.20;99.90;;;;;;10463538;28;20051;-59
2021/05/18 23:20:26;;;;;;;5.90;2.33;;;10.30;99.90;;;;;;10464330;28;20485;-60
2021/05/18 23:25:28;;;;;;;4.22;2.38;;;10.10;99.90;;;;;;10463959;28;20049;-60
2021/05/18 23:30:30;;;;;;;3.88;2.00;;;10.10;99.90;;;;;;10464387;28;20045;-60
2021/05/18 23:35:33;;;;;;;6.05;2.75;;;10.10;99.90;;;;;;10463775;28;20056;-59
2021/05/18 23:40:35;;;;;;;3.58;2.92;;;9.90;99.90;;;;;;10463588;28;20507;-61
2021/05/18 23:45:37;;;;;;;8.70;3.03;;;9.60;99.90;;;;;;10463363;28;20052;-60
2021/05/18 23:50:39;;;;;;;6.80;3.53;;;9.70;99.90;;;;;;10463314;28;20126;-58
2021/05/18 23:55:41;;;;;;;3.42;3.13;;;9.70;99.90;;;;;;10461820;28;20045;-58
